sensor_id;sensor_type;location;lat;lon;timestamp;P1;durP1;ratioP1;P2;durP2;ratioP2
5939;SDS011;2995;-31.998;115.906;2023-08-07T00:02:11;5.77;;;4.37;;
5939;SDS011;2995;-31.998;115.906;2023-08-07T00:04:43;8.73;;;4.97;;
5939;SDS011;2995;-31.998;115.906;2023-08-07T00:07:15;6.50;;;5.13;;
5939;SDS011;2995;-31.998;115.906;2023-08-07T00:09:46;7.30;;;4.60;;
5939;SDS011;2995;-31.998;115.906;2023-08-07T00:12:20;7.90;;;5.00;;
5939;SDS011;2995;-31.998;115.906;2023-08-07T00:14:51;7.07;;;4.50;;
5939;SDS011;2995;-31.998;115.906;2023-08-07T00:17:22;8.27;;;5.53;;
5939;SDS011;2995;-31.998;115.906;2023-08-07T00:19:53;8.27;;;5.30;;
5939;SDS011;2995;-31.998;115.906;2023-08-07T00:22:24;5.80;;;5.30;;
5939;SDS011;2995;-31.998;115.906;2023-08-07T00:24:55;6.70;;;5.60;;
5939;SDS011;2995;-31.998;115.906;2023-08-07T00:27:29;6.93;;;5.27;;
5939;SDS011;2995;-31.998;115.906;2023-08-07T00:30:00;8.33;;;5.47;;
5939;SDS011;2995;-31.998;115.906;2023-08-07T00:32:31;7.63;;;5.80;;
5939;SDS011;2995;-31.998;115.906;2023-08-07T00:35:02;5.10;;;4.40;;
5939;SDS011;2995;-31.998;115.906;2023-08-07T00:37:34;5.40;;;4.83;;
5939;SDS011;2995;-31.998;115.906;2023-08-07T00:40:06;5.17;;;4.60;;
5939;SDS011;2995;-31.998;115.906;2023-08-07T00:42:39;6.43;;;5.23;;
5939;SDS011;2995;-31.998;115.906;2023-08-07T00:45:11;5.47;;;4.77;;
5939;SDS011;2995;-31.998;115.906;2023-08-07T00:47:43;11.90;;;5.30;;
5939;SDS011;2995;-31.998;115.906;2023-08-07T00:50:15;6.47;;;4.50;;
5939;SDS011;2995;-31.998;115.906;2023-08-07T00:52:46;8.60;;;5.87;;
5939;SDS011;2995;-31.998;115.906;2023-08-07T00:55:18;7.23;;;5.07;;
5939;SDS011;2995;-31.998;115.906;2023-08-07T00:57:51;7.43;;;5.37;;
5939;SDS011;2995;-31.998;115.906;2023-08-07T01:00:22;9.53;;;5.63;;
5939;SDS011;2995;-31.998;115.906;2023-08-07T01:02:54;5.53;;;4.80;;
5939;SDS011;2995;-31.998;115.906;2023-08-07T01:05:27;11.70;;;6.10;;
5939;SDS011;2995;-31.998;115.906;2023-08-07T01:07:58;7.60;;;5.10;;
5939;SDS011;2995;-31.998;115.906;2023-08-07T01:10:32;8.10;;;4.93;;
5939;SDS011;2995;-31.998;115.906;2023-08-07T01:13:13;6.33;;;5.03;;
5939;SDS011;2995;-31.998;115.906;2023-08-07T01:15:49;7.50;;;5.30;;
5939;SDS011;2995;-31.998;115.906;2023-08-07T01:18:25;13.93;;;5.07;;
5939;SDS011;2995;-31.998;115.906;2023-08-07T01:20:57;7.13;;;5.20;;
5939;SDS011;2995;-31.998;115.906;2023-08-07T01:23:31;8.80;;;4.73;;
5939;SDS011;2995;-31.998;115.906;2023-08-07T01:26:02;6.50;;;4.30;;
5939;SDS011;2995;-31.998;115.906;2023-08-07T01:28:34;7.60;;;4.13;;
5939;SDS011;2995;-31.998;115.906;2023-08-07T01:31:10;6.90;;;4.03;;
5939;SDS011;2995;-31.998;115.906;2023-08-07T01:33:49;6.50;;;4.63;;
5939;SDS011;2995;-31.998;115.906;2023-08-07T01:36:27;6.10;;;3.67;;
5939;SDS011;2995;-31.998;115.906;2023-08-07T01:39:01;5.73;;;4.77;;
5939;SDS011;2995;-31.998;115.906;2023-08-07T01:41:34;6.37;;;4.20;;
5939;SDS011;2995;-31.998;115.906;2023-08-07T01:44:06;8.23;;;4.97;;
5939;SDS011;2995;-31.998;115.906;2023-08-07T01:46:38;6.20;;;3.80;;
5939;SDS011;2995;-31.998;115.906;2023-08-07T01:49:09;4.70;;;4.07;;
5939;SDS011;2995;-31.998;115.906;2023-08-07T01:51:40;10.03;;;4.87;;
5939;SDS011;2995;-31.998;115.906;2023-08-07T01:54:14;4.83;;;3.87;;
5939;SDS011;2995;-31.998;115.906;2023-08-07T01:56:45;7.80;;;4.47;;
5939;SDS011;2995;-31.998;115.906;2023-08-07T01:59:17;11.73;;;5.60;;
5939;SDS011;2995;-31.998;115.906;2023-08-07T02:01:48;8.07;;;4.73;;
5939;SDS011;2995;-31.998;115.906;2023-08-07T02:04:19;7.47;;;5.30;;
5939;SDS011;2995;-31.998;115.906;2023-08-07T02:06:50;5.90;;;4.90;;
5939;SDS011;2995;-31.998;115.906;2023-08-07T02:09:24;9.57;;;4.83;;
5939;SDS011;2995;-31.998;115.906;2023-08-07T02:11:55;7.87;;;5.20;;
5939;SDS011;2995;-31.998;115.906;2023-08-07T02:14:26;6.67;;;5.33;;
5939;SDS011;2995;-31.998;115.906;2023-08-07T02:16:57;6.80;;;5.23;;
5939;SDS011;2995;-31.998;115.906;2023-08-07T02:19:28;6.23;;;4.57;;
5939;SDS011;2995;-31.998;115.906;2023-08-07T02:22:00;6.30;;;4.30;;
5939;SDS011;2995;-31.998;115.906;2023-08-07T02:24:33;8.50;;;5.40;;
5939;SDS011;2995;-31.998;115.906;2023-08-07T02:27:04;7.83;;;4.00;;
5939;SDS011;2995;-31.998;115.906;2023-08-07T02:29:36;10.20;;;5.67;;
5939;SDS011;2995;-31.998;115.906;2023-08-07T02:32:07;8.33;;;4.60;;
5939;SDS011;2995;-31.998;115.906;2023-08-07T02:34:38;9.47;;;4.47;;
5939;SDS011;2995;-31.998;115.906;2023-08-07T02:37:13;5.00;;;4.50;;
5939;SDS011;2995;-31.998;115.906;2023-08-07T02:39:47;8.13;;;4.93;;
5939;SDS011;2995;-31.998;115.906;2023-08-07T02:42:19;5.67;;;4.00;;
5939;SDS011;2995;-31.998;115.906;2023-08-07T02:44:52;6.67;;;4.70;;
5939;SDS011;2995;-31.998;115.906;2023-08-07T02:47:23;3.97;;;3.57;;
5939;SDS011;2995;-31.998;115.906;2023-08-07T02:49:54;8.77;;;3.90;;
5939;SDS011;2995;-31.998;115.906;2023-08-07T02:52:25;6.60;;;3.20;;
5939;SDS011;2995;-31.998;115.906;2023-08-07T02:54:59;4.87;;;3.10;;
5939;SDS011;2995;-31.998;115.906;2023-08-07T02:57:30;4.00;;;3.00;;
5939;SDS011;2995;-31.998;115.906;2023-08-07T03:00:01;8.97;;;3.00;;
5939;SDS011;2995;-31.998;115.906;2023-08-07T03:02:32;6.93;;;2.63;;
5939;SDS011;2995;-31.998;115.906;2023-08-07T03:05:04;4.67;;;2.50;;
5939;SDS011;2995;-31.998;115.906;2023-08-07T03:07:35;3.53;;;2.30;;
5939;SDS011;2995;-31.998;115.906;2023-08-07T03:10:09;3.60;;;2.73;;
5939;SDS011;2995;-31.998;115.906;2023-08-07T03:12:40;5.40;;;2.30;;
5939;SDS011;2995;-31.998;115.906;2023-08-07T03:15:11;3.77;;;1.90;;
5939;SDS011;2995;-31.998;115.906;2023-08-07T03:17:42;10.13;;;2.17;;
5939;SDS011;2995;-31.998;115.906;2023-08-07T03:20:14;4.33;;;2.30;;
5939;SDS011;2995;-31.998;115.906;2023-08-07T03:22:45;6.07;;;2.03;;
5939;SDS011;2995;-31.998;115.906;2023-08-07T03:25:20;4.97;;;1.97;;
5939;SDS011;2995;-31.998;115.906;2023-08-07T03:27:51;4.80;;;2.10;;
5939;SDS011;2995;-31.998;115.906;2023-08-07T03:30:22;4.20;;;2.20;;
5939;SDS011;2995;-31.998;115.906;2023-08-07T03:32:53;3.83;;;1.60;;
5939;SDS011;2995;-31.998;115.906;2023-08-07T03:35:24;2.23;;;1.77;;
5939;SDS011;2995;-31.998;115.906;2023-08-07T03:37:56;5.70;;;2.30;;
5939;SDS011;2995;-31.998;115.906;2023-08-07T03:40:29;4.03;;;1.73;;
5939;SDS011;2995;-31.998;115.906;2023-08-07T03:43:00;3.27;;;1.80;;
5939;SDS011;2995;-31.998;115.906;2023-08-07T03:45:31;4.90;;;1.90;;
5939;SDS011;2995;-31.998;115.906;2023-08-07T03:48:02;3.10;;;1.60;;
5939;SDS011;2995;-31.998;115.906;2023-08-07T03:50:34;2.77;;;1.73;;
5939;SDS011;2995;-31.998;115.906;2023-08-07T03:53:05;5.73;;;1.73;;
5939;SDS011;2995;-31.998;115.906;2023-08-07T03:55:38;5.50;;;1.43;;
5939;SDS011;2995;-31.998;115.906;2023-08-07T03:58:11;3.47;;;1.63;;
5939;SDS011;2995;-31.998;115.906;2023-08-07T04:00:42;2.03;;;1.60;;
5939;SDS011;2995;-31.998;115.906;2023-08-07T04:03:14;4.20;;;1.83;;
5939;SDS011;2995;-31.998;115.906;2023-08-07T04:05:45;2.27;;;1.37;;
5939;SDS011;2995;-31.998;115.906;2023-08-07T04:08:16;2.37;;;1.70;;
5939;SDS011;2995;-31.998;115.906;2023-08-07T04:10:59;2.30;;;1.50;;
5939;SDS011;2995;-31.998;115.906;2023-08-07T04:13:31;3.20;;;1.43;;
5939;SDS011;2995;-31.998;115.906;2023-08-07T04:16:02;2.67;;;1.60;;
5939;SDS011;2995;-31.998;115.906;2023-08-07T04:18:34;4.30;;;1.43;;
5939;SDS011;2995;-31.998;115.906;2023-08-07T04:21:05;3.30;;;2.07;;
5939;SDS011;2995;-31.998;115.906;2023-08-07T04:23:36;2.43;;;1.57;;
5939;SDS011;2995;-31.998;115.906;2023-08-07T04:26:10;4.03;;;1.60;;
5939;SDS011;2995;-31.998;115.906;2023-08-07T04:28:41;1.93;;;1.63;;
5939;SDS011;2995;-31.998;115.906;2023-08-07T04:31:12;2.07;;;1.20;;
5939;SDS011;2995;-31.998;115.906;2023-08-07T04:33:43;5.80;;;1.47;;
5939;SDS011;2995;-31.998;115.906;2023-08-07T04:36:15;3.10;;;1.40;;
5939;SDS011;2995;-31.998;115.906;2023-08-07T04:38:47;5.47;;;1.50;;
5939;SDS011;2995;-31.998;115.906;2023-08-07T04:41:20;3.83;;;1.57;;
5939;SDS011;2995;-31.998;115.906;2023-08-07T04:43:52;2.77;;;1.80;;
5939;SDS011;2995;-31.998;115.906;2023-08-07T04:46:23;3.80;;;1.80;;
5939;SDS011;2995;-31.998;115.906;2023-08-07T04:48:54;3.80;;;1.50;;
5939;SDS011;2995;-31.998;115.906;2023-08-07T04:51:27;3.97;;;1.57;;
5939;SDS011;2995;-31.998;115.906;2023-08-07T04:53:58;3.30;;;1.83;;
5939;SDS011;2995;-31.998;115.906;2023-08-07T04:56:31;5.47;;;1.70;;
5939;SDS011;2995;-31.998;115.906;2023-08-07T04:59:03;2.63;;;1.50;;
5939;SDS011;2995;-31.998;115.906;2023-08-07T05:01:34;3.93;;;1.90;;
5939;SDS011;2995;-31.998;115.906;2023-08-07T05:04:05;3.70;;;2.13;;
5939;SDS011;2995;-31.998;115.906;2023-08-07T05:06:36;4.63;;;1.53;;
5939;SDS011;2995;-31.998;115.906;2023-08-07T05:09:08;3.53;;;1.43;;
5939;SDS011;2995;-31.998;115.906;2023-08-07T05:11:41;4.10;;;1.67;;
5939;SDS011;2995;-31.998;115.906;2023-08-07T05:14:12;4.60;;;1.30;;
5939;SDS011;2995;-31.998;115.906;2023-08-07T05:16:44;4.03;;;1.43;;
5939;SDS011;2995;-31.998;115.906;2023-08-07T05:19:15;4.20;;;1.50;;
5939;SDS011;2995;-31.998;115.906;2023-08-07T05:21:47;2.20;;;1.50;;
5939;SDS011;2995;-31.998;115.906;2023-08-07T05:24:18;2.30;;;2.10;;
5939;SDS011;2995;-31.998;115.906;2023-08-07T05:26:51;7.03;;;1.80;;
5939;SDS011;2995;-31.998;115.906;2023-08-07T05:29:23;4.10;;;1.70;;
5939;SDS011;2995;-31.998;115.906;2023-08-07T05:31:54;4.33;;;1.87;;
5939;SDS011;2995;-31.998;115.906;2023-08-07T05:34:25;2.90;;;1.70;;
5939;SDS011;2995;-31.998;115.906;2023-08-07T05:36:56;4.17;;;2.03;;
5939;SDS011;2995;-31.998;115.906;2023-08-07T05:39:27;3.10;;;1.80;;
5939;SDS011;2995;-31.998;115.906;2023-08-07T05:42:01;4.17;;;1.80;;
5939;SDS011;2995;-31.998;115.906;2023-08-07T05:44:34;2.33;;;1.70;;
5939;SDS011;2995;-31.998;115.906;2023-08-07T05:47:05;4.07;;;1.53;;
5939;SDS011;2995;-31.998;115.906;2023-08-07T05:49:37;2.90;;;1.90;;
5939;SDS011;2995;-31.998;115.906;2023-08-07T05:52:08;4.50;;;1.40;;
5939;SDS011;2995;-31.998;115.906;2023-08-07T05:54:39;4.30;;;1.63;;
5939;SDS011;2995;-31.998;115.906;2023-08-07T05:57:13;4.47;;;2.00;;
5939;SDS011;2995;-31.998;115.906;2023-08-07T05:59:44;4.63;;;1.67;;
5939;SDS011;2995;-31.998;115.906;2023-08-07T06:02:15;3.17;;;1.67;;
5939;SDS011;2995;-31.998;115.906;2023-08-07T06:04:47;6.20;;;1.90;;
5939;SDS011;2995;-31.998;115.906;2023-08-07T06:07:19;4.97;;;2.07;;
5939;SDS011;2995;-31.998;115.906;2023-08-07T06:09:50;3.17;;;1.90;;
5939;SDS011;2995;-31.998;115.906;2023-08-07T06:12:23;4.77;;;1.87;;
5939;SDS011;2995;-31.998;115.906;2023-08-07T06:14:54;4.63;;;1.60;;
5939;SDS011;2995;-31.998;115.906;2023-08-07T06:17:26;6.57;;;1.80;;
5939;SDS011;2995;-31.998;115.906;2023-08-07T06:19:57;4.63;;;1.67;;
5939;SDS011;2995;-31.998;115.906;2023-08-07T06:22:30;2.90;;;1.70;;
5939;SDS011;2995;-31.998;115.906;2023-08-07T06:25:01;3.10;;;2.00;;
5939;SDS011;2995;-31.998;115.906;2023-08-07T06:27:35;5.00;;;1.90;;
5939;SDS011;2995;-31.998;115.906;2023-08-07T06:30:06;2.17;;;1.80;;
5939;SDS011;2995;-31.998;115.906;2023-08-07T06:32:39;3.50;;;2.07;;
5939;SDS011;2995;-31.998;115.906;2023-08-07T06:35:10;9.30;;;2.00;;
5939;SDS011;2995;-31.998;115.906;2023-08-07T06:37:42;3.33;;;1.67;;
5939;SDS011;2995;-31.998;115.906;2023-08-07T06:40:13;5.33;;;1.80;;
5939;SDS011;2995;-31.998;115.906;2023-08-07T06:42:46;4.80;;;2.10;;
5939;SDS011;2995;-31.998;115.906;2023-08-07T06:45:18;8.20;;;2.07;;
5939;SDS011;2995;-31.998;115.906;2023-08-07T06:47:49;4.93;;;1.77;;
5939;SDS011;2995;-31.998;115.906;2023-08-07T06:50:20;5.03;;;2.13;;
5939;SDS011;2995;-31.998;115.906;2023-08-07T06:52:51;6.77;;;2.00;;
5939;SDS011;2995;-31.998;115.906;2023-08-07T06:55:22;7.97;;;2.53;;
5939;SDS011;2995;-31.998;115.906;2023-08-07T06:57:56;2.90;;;2.10;;
5939;SDS011;2995;-31.998;115.906;2023-08-07T07:00:28;3.57;;;2.07;;
5939;SDS011;2995;-31.998;115.906;2023-08-07T07:03:01;3.20;;;1.87;;
5939;SDS011;2995;-31.998;115.906;2023-08-07T07:05:33;5.77;;;2.10;;
5939;SDS011;2995;-31.998;115.906;2023-08-07T07:08:05;5.10;;;2.37;;
5939;SDS011;2995;-31.998;115.906;2023-08-07T07:10:36;4.93;;;2.00;;
5939;SDS011;2995;-31.998;115.906;2023-08-07T07:13:09;4.77;;;2.23;;
5939;SDS011;2995;-31.998;115.906;2023-08-07T07:15:40;9.47;;;2.10;;
5939;SDS011;2995;-31.998;115.906;2023-08-07T07:18:12;5.27;;;1.97;;
5939;SDS011;2995;-31.998;115.906;2023-08-07T07:20:43;6.20;;;2.40;;
5939;SDS011;2995;-31.998;115.906;2023-08-07T07:23:14;4.23;;;1.83;;
5939;SDS011;2995;-31.998;115.906;2023-08-07T07:25:45;3.90;;;1.90;;
5939;SDS011;2995;-31.998;115.906;2023-08-07T07:28:19;3.87;;;1.90;;
5939;SDS011;2995;-31.998;115.906;2023-08-07T07:30:51;2.10;;;1.47;;
5939;SDS011;2995;-31.998;115.906;2023-08-07T07:33:22;2.60;;;1.83;;
5939;SDS011;2995;-31.998;115.906;2023-08-07T07:35:54;3.20;;;1.60;;
5939;SDS011;2995;-31.998;115.906;2023-08-07T07:38:25;2.37;;;1.67;;
5939;SDS011;2995;-31.998;115.906;2023-08-07T07:40:56;2.70;;;1.70;;
5939;SDS011;2995;-31.998;115.906;2023-08-07T07:43:30;2.97;;;1.37;;
5939;SDS011;2995;-31.998;115.906;2023-08-07T07:46:03;5.13;;;1.50;;
5939;SDS011;2995;-31.998;115.906;2023-08-07T07:48:34;2.03;;;1.20;;
5939;SDS011;2995;-31.998;115.906;2023-08-07T07:51:05;5.50;;;2.07;;
5939;SDS011;2995;-31.998;115.906;2023-08-07T07:53:37;2.93;;;1.60;;
5939;SDS011;2995;-31.998;115.906;2023-08-07T07:56:08;3.40;;;1.53;;
5939;SDS011;2995;-31.998;115.906;2023-08-07T07:58:41;4.43;;;1.70;;
5939;SDS011;2995;-31.998;115.906;2023-08-07T08:01:12;3.43;;;1.43;;
5939;SDS011;2995;-31.998;115.906;2023-08-07T08:03:44;4.27;;;1.57;;
5939;SDS011;2995;-31.998;115.906;2023-08-07T08:06:15;6.33;;;1.70;;
5939;SDS011;2995;-31.998;115.906;2023-08-07T08:08:47;4.80;;;1.53;;
5939;SDS011;2995;-31.998;115.906;2023-08-07T08:11:18;3.83;;;1.63;;
5939;SDS011;2995;-31.998;115.906;2023-08-07T08:13:51;7.70;;;1.60;;
5939;SDS011;2995;-31.998;115.906;2023-08-07T08:16:23;3.30;;;1.63;;
5939;SDS011;2995;-31.998;115.906;2023-08-07T08:18:54;3.10;;;1.53;;
5939;SDS011;2995;-31.998;115.906;2023-08-07T08:21:25;2.40;;;1.40;;
5939;SDS011;2995;-31.998;115.906;2023-08-07T08:23:57;2.17;;;1.40;;
5939;SDS011;2995;-31.998;115.906;2023-08-07T08:26:28;7.33;;;1.97;;
5939;SDS011;2995;-31.998;115.906;2023-08-07T08:29:01;20.13;;;2.20;;
5939;SDS011;2995;-31.998;115.906;2023-08-07T08:31:34;35.73;;;3.70;;
5939;SDS011;2995;-31.998;115.906;2023-08-07T08:34:08;3.33;;;1.40;;
5939;SDS011;2995;-31.998;115.906;2023-08-07T08:36:39;3.70;;;1.73;;
5939;SDS011;2995;-31.998;115.906;2023-08-07T08:39:10;4.37;;;1.80;;
5939;SDS011;2995;-31.998;115.906;2023-08-07T08:41:41;3.87;;;1.60;;
5939;SDS011;2995;-31.998;115.906;2023-08-07T08:44:19;5.23;;;1.80;;
5939;SDS011;2995;-31.998;115.906;2023-08-07T08:46:51;7.13;;;1.83;;
5939;SDS011;2995;-31.998;115.906;2023-08-07T08:49:26;5.13;;;1.60;;
5939;SDS011;2995;-31.998;115.906;2023-08-07T08:52:02;8.30;;;1.87;;
5939;SDS011;2995;-31.998;115.906;2023-08-07T08:54:34;7.90;;;1.90;;
5939;SDS011;2995;-31.998;115.906;2023-08-07T08:57:06;4.63;;;1.80;;
5939;SDS011;2995;-31.998;115.906;2023-08-07T08:59:40;10.63;;;1.90;;
5939;SDS011;2995;-31.998;115.906;2023-08-07T09:02:12;6.93;;;2.03;;
5939;SDS011;2995;-31.998;115.906;2023-08-07T09:04:44;3.30;;;1.77;;
5939;SDS011;2995;-31.998;115.906;2023-08-07T09:07:15;2.90;;;1.80;;
5939;SDS011;2995;-31.998;115.906;2023-08-07T09:09:49;5.83;;;2.13;;
5939;SDS011;2995;-31.998;115.906;2023-08-07T09:12:21;5.60;;;1.67;;
5939;SDS011;2995;-31.998;115.906;2023-08-07T09:14:57;4.63;;;2.00;;
5939;SDS011;2995;-31.998;115.906;2023-08-07T09:17:31;6.67;;;2.00;;
5939;SDS011;2995;-31.998;115.906;2023-08-07T09:20:06;5.47;;;2.10;;
5939;SDS011;2995;-31.998;115.906;2023-08-07T09:22:39;3.40;;;2.20;;
5939;SDS011;2995;-31.998;115.906;2023-08-07T09:25:11;5.27;;;2.00;;
5939;SDS011;2995;-31.998;115.906;2023-08-07T09:27:42;4.87;;;2.30;;
5939;SDS011;2995;-31.998;115.906;2023-08-07T09:30:15;5.60;;;1.70;;
5939;SDS011;2995;-31.998;115.906;2023-08-07T09:32:47;4.30;;;1.60;;
5939;SDS011;2995;-31.998;115.906;2023-08-07T09:35:21;5.47;;;2.40;;
5939;SDS011;2995;-31.998;115.906;2023-08-07T09:37:52;8.00;;;1.70;;
5939;SDS011;2995;-31.998;115.906;2023-08-07T09:40:25;3.73;;;1.90;;
5939;SDS011;2995;-31.998;115.906;2023-08-07T09:43:00;4.03;;;1.77;;
5939;SDS011;2995;-31.998;115.906;2023-08-07T09:45:33;3.20;;;1.67;;
5939;SDS011;2995;-31.998;115.906;2023-08-07T09:48:05;5.83;;;1.73;;
5939;SDS011;2995;-31.998;115.906;2023-08-07T09:50:37;7.10;;;2.33;;
5939;SDS011;2995;-31.998;115.906;2023-08-07T09:53:08;5.17;;;1.80;;
5939;SDS011;2995;-31.998;115.906;2023-08-07T09:55:40;3.90;;;2.10;;
5939;SDS011;2995;-31.998;115.906;2023-08-07T09:58:11;9.93;;;2.40;;
5939;SDS011;2995;-31.998;115.906;2023-08-07T10:00:46;3.37;;;1.90;;
5939;SDS011;2995;-31.998;115.906;2023-08-07T10:03:19;3.60;;;1.93;;
5939;SDS011;2995;-31.998;115.906;2023-08-07T10:05:51;3.90;;;2.20;;
5939;SDS011;2995;-31.998;115.906;2023-08-07T10:08:23;4.73;;;2.10;;
5939;SDS011;2995;-31.998;115.906;2023-08-07T10:10:55;5.40;;;2.40;;
5939;SDS011;2995;-31.998;115.906;2023-08-07T10:13:27;2.97;;;2.20;;
5939;SDS011;2995;-31.998;115.906;2023-08-07T10:16:02;3.40;;;2.50;;
5939;SDS011;2995;-31.998;115.906;2023-08-07T10:18:34;5.90;;;2.03;;
5939;SDS011;2995;-31.998;115.906;2023-08-07T10:21:06;6.40;;;2.07;;
5939;SDS011;2995;-31.998;115.906;2023-08-07T10:23:37;5.03;;;2.03;;
5939;SDS011;2995;-31.998;115.906;2023-08-07T10:26:10;3.40;;;2.10;;
5939;SDS011;2995;-31.998;115.906;2023-08-07T10:28:42;5.27;;;2.00;;
5939;SDS011;2995;-31.998;115.906;2023-08-07T10:31:16;5.37;;;2.63;;
5939;SDS011;2995;-31.998;115.906;2023-08-07T10:33:48;6.43;;;3.47;;
5939;SDS011;2995;-31.998;115.906;2023-08-07T10:36:20;7.07;;;3.50;;
5939;SDS011;2995;-31.998;115.906;2023-08-07T10:38:51;5.60;;;2.80;;
5939;SDS011;2995;-31.998;115.906;2023-08-07T10:41:39;4.50;;;4.10;;
5939;SDS011;2995;-31.998;115.906;2023-08-07T10:44:20;7.63;;;3.77;;
5939;SDS011;2995;-31.998;115.906;2023-08-07T10:46:54;6.57;;;3.00;;
5939;SDS011;2995;-31.998;115.906;2023-08-07T10:49:35;5.90;;;2.40;;
5939;SDS011;2995;-31.998;115.906;2023-08-07T10:52:08;5.00;;;2.33;;
5939;SDS011;2995;-31.998;115.906;2023-08-07T10:54:44;3.77;;;2.20;;
5939;SDS011;2995;-31.998;115.906;2023-08-07T10:57:17;7.90;;;2.33;;
5939;SDS011;2995;-31.998;115.906;2023-08-07T11:00:00;6.47;;;4.83;;
5939;SDS011;2995;-31.998;115.906;2023-08-07T11:02:37;10.03;;;6.20;;
5939;SDS011;2995;-31.998;115.906;2023-08-07T11:05:10;8.67;;;5.30;;
5939;SDS011;2995;-31.998;115.906;2023-08-07T11:07:43;8.93;;;5.57;;
5939;SDS011;2995;-31.998;115.906;2023-08-07T11:10:14;5.00;;;4.50;;
5939;SDS011;2995;-31.998;115.906;2023-08-07T11:12:46;7.30;;;3.90;;
5939;SDS011;2995;-31.998;115.906;2023-08-07T11:15:18;5.47;;;2.90;;
5939;SDS011;2995;-31.998;115.906;2023-08-07T11:17:51;8.23;;;2.30;;
5939;SDS011;2995;-31.998;115.906;2023-08-07T11:20:24;10.53;;;2.50;;
5939;SDS011;2995;-31.998;115.906;2023-08-07T11:22:56;3.43;;;2.40;;
5939;SDS011;2995;-31.998;115.906;2023-08-07T11:25:28;5.30;;;2.63;;
5939;SDS011;2995;-31.998;115.906;2023-08-07T11:27:59;4.83;;;2.47;;
5939;SDS011;2995;-31.998;115.906;2023-08-07T11:30:30;3.87;;;2.20;;
5939;SDS011;2995;-31.998;115.906;2023-08-07T11:33:03;3.80;;;2.83;;
5939;SDS011;2995;-31.998;115.906;2023-08-07T11:35:35;5.20;;;3.27;;
5939;SDS011;2995;-31.998;115.906;2023-08-07T11:38:11;4.43;;;3.53;;
5939;SDS011;2995;-31.998;115.906;2023-08-07T11:40:58;5.23;;;3.13;;
5939;SDS011;2995;-31.998;115.906;2023-08-07T11:43:30;8.40;;;3.23;;
5939;SDS011;2995;-31.998;115.906;2023-08-07T11:46:01;5.10;;;3.80;;
5939;SDS011;2995;-31.998;115.906;2023-08-07T11:48:36;4.00;;;3.40;;
5939;SDS011;2995;-31.998;115.906;2023-08-07T11:51:08;5.83;;;4.33;;
5939;SDS011;2995;-31.998;115.906;2023-08-07T11:53:39;7.07;;;4.70;;
5939;SDS011;2995;-31.998;115.906;2023-08-07T11:56:11;7.00;;;4.50;;
5939;SDS011;2995;-31.998;115.906;2023-08-07T11:58:44;16.53;;;8.17;;
5939;SDS011;2995;-31.998;115.906;2023-08-07T12:01:17;14.10;;;9.90;;
5939;SDS011;2995;-31.998;115.906;2023-08-07T12:03:54;15.90;;;10.33;;
5939;SDS011;2995;-31.998;115.906;2023-08-07T12:06:26;23.87;;;13.60;;
5939;SDS011;2995;-31.998;115.906;2023-08-07T12:08:57;24.10;;;17.30;;
5939;SDS011;2995;-31.998;115.906;2023-08-07T12:11:30;19.30;;;12.87;;
5939;SDS011;2995;-31.998;115.906;2023-08-07T12:14:01;15.20;;;10.10;;
5939;SDS011;2995;-31.998;115.906;2023-08-07T12:16:33;9.03;;;5.87;;
5939;SDS011;2995;-31.998;115.906;2023-08-07T12:19:06;9.60;;;5.77;;
5939;SDS011;2995;-31.998;115.906;2023-08-07T12:21:39;7.23;;;4.40;;
5939;SDS011;2995;-31.998;115.906;2023-08-07T12:24:10;6.53;;;4.30;;
5939;SDS011;2995;-31.998;115.906;2023-08-07T12:26:43;7.40;;;3.43;;
5939;SDS011;2995;-31.998;115.906;2023-08-07T12:29:15;4.47;;;3.30;;
5939;SDS011;2995;-31.998;115.906;2023-08-07T12:31:46;7.03;;;4.43;;
5939;SDS011;2995;-31.998;115.906;2023-08-07T12:34:20;7.17;;;3.80;;
5939;SDS011;2995;-31.998;115.906;2023-08-07T12:36:51;7.70;;;4.90;;
5939;SDS011;2995;-31.998;115.906;2023-08-07T12:39:22;7.67;;;4.97;;
5939;SDS011;2995;-31.998;115.906;2023-08-07T12:41:53;7.33;;;5.23;;
5939;SDS011;2995;-31.998;115.906;2023-08-07T12:44:24;6.97;;;4.90;;
5939;SDS011;2995;-31.998;115.906;2023-08-07T12:46:56;5.40;;;4.90;;
5939;SDS011;2995;-31.998;115.906;2023-08-07T12:49:29;9.03;;;4.50;;
5939;SDS011;2995;-31.998;115.906;2023-08-07T12:52:00;7.73;;;4.10;;
5939;SDS011;2995;-31.998;115.906;2023-08-07T12:54:31;5.10;;;4.57;;
5939;SDS011;2995;-31.998;115.906;2023-08-07T12:57:03;10.73;;;5.20;;
5939;SDS011;2995;-31.998;115.906;2023-08-07T12:59:34;5.70;;;4.87;;
5939;SDS011;2995;-31.998;115.906;2023-08-07T13:02:05;8.37;;;5.83;;
5939;SDS011;2995;-31.998;115.906;2023-08-07T13:04:39;13.17;;;5.47;;
5939;SDS011;2995;-31.998;115.906;2023-08-07T13:07:10;8.23;;;5.50;;
5939;SDS011;2995;-31.998;115.906;2023-08-07T13:09:41;5.20;;;4.40;;
5939;SDS011;2995;-31.998;115.906;2023-08-07T13:12:12;8.33;;;4.10;;
5939;SDS011;2995;-31.998;115.906;2023-08-07T13:14:43;6.10;;;4.97;;
5939;SDS011;2995;-31.998;115.906;2023-08-07T13:17:15;12.17;;;9.60;;
5939;SDS011;2995;-31.998;115.906;2023-08-07T13:19:48;28.23;;;17.50;;
5939;SDS011;2995;-31.998;115.906;2023-08-07T13:22:19;19.80;;;12.60;;
5939;SDS011;2995;-31.998;115.906;2023-08-07T13:24:51;22.40;;;8.87;;
5939;SDS011;2995;-31.998;115.906;2023-08-07T13:27:23;9.90;;;5.53;;
5939;SDS011;2995;-31.998;115.906;2023-08-07T13:29:54;8.30;;;5.80;;
5939;SDS011;2995;-31.998;115.906;2023-08-07T13:32:25;12.47;;;6.43;;
5939;SDS011;2995;-31.998;115.906;2023-08-07T13:35:00;20.43;;;14.13;;
5939;SDS011;2995;-31.998;115.906;2023-08-07T13:37:31;20.87;;;15.80;;
5939;SDS011;2995;-31.998;115.906;2023-08-07T13:40:04;15.43;;;7.33;;
5939;SDS011;2995;-31.998;115.906;2023-08-07T13:42:37;11.27;;;6.27;;
5939;SDS011;2995;-31.998;115.906;2023-08-07T13:45:10;6.53;;;4.50;;
5939;SDS011;2995;-31.998;115.906;2023-08-07T13:47:41;9.70;;;4.73;;
5939;SDS011;2995;-31.998;115.906;2023-08-07T13:50:14;8.23;;;4.77;;
5939;SDS011;2995;-31.998;115.906;2023-08-07T13:52:46;6.63;;;5.10;;
5939;SDS011;2995;-31.998;115.906;2023-08-07T13:55:18;8.57;;;7.13;;
5939;SDS011;2995;-31.998;115.906;2023-08-07T13:57:50;11.03;;;7.00;;
5939;SDS011;2995;-31.998;115.906;2023-08-07T14:00:21;10.20;;;5.90;;
5939;SDS011;2995;-31.998;115.906;2023-08-07T14:02:52;12.17;;;5.37;;
5939;SDS011;2995;-31.998;115.906;2023-08-07T14:05:25;16.20;;;10.00;;
5939;SDS011;2995;-31.998;115.906;2023-08-07T14:07:57;11.47;;;6.87;;
5939;SDS011;2995;-31.998;115.906;2023-08-07T14:10:28;8.43;;;5.33;;
5939;SDS011;2995;-31.998;115.906;2023-08-07T14:13:00;11.27;;;5.97;;
5939;SDS011;2995;-31.998;115.906;2023-08-07T14:15:31;7.90;;;5.20;;
5939;SDS011;2995;-31.998;115.906;2023-08-07T14:18:02;6.93;;;5.20;;
5939;SDS011;2995;-31.998;115.906;2023-08-07T14:20:35;8.90;;;5.17;;
5939;SDS011;2995;-31.998;115.906;2023-08-07T14:23:06;7.63;;;5.33;;
5939;SDS011;2995;-31.998;115.906;2023-08-07T14:25:38;17.43;;;5.27;;
5939;SDS011;2995;-31.998;115.906;2023-08-07T14:28:09;11.40;;;5.50;;
5939;SDS011;2995;-31.998;115.906;2023-08-07T14:30:40;7.40;;;4.63;;
5939;SDS011;2995;-31.998;115.906;2023-08-07T14:33:11;8.33;;;5.40;;
5939;SDS011;2995;-31.998;115.906;2023-08-07T14:35:45;7.00;;;5.53;;
5939;SDS011;2995;-31.998;115.906;2023-08-07T14:38:16;10.13;;;5.40;;
5939;SDS011;2995;-31.998;115.906;2023-08-07T14:40:47;8.30;;;5.03;;
5939;SDS011;2995;-31.998;115.906;2023-08-07T14:43:19;10.43;;;6.23;;
5939;SDS011;2995;-31.998;115.906;2023-08-07T14:45:51;11.80;;;5.47;;
5939;SDS011;2995;-31.998;115.906;2023-08-07T14:48:22;9.07;;;5.23;;
5939;SDS011;2995;-31.998;115.906;2023-08-07T14:50:55;11.60;;;5.57;;
5939;SDS011;2995;-31.998;115.906;2023-08-07T14:53:26;5.90;;;4.90;;
5939;SDS011;2995;-31.998;115.906;2023-08-07T14:55:58;9.20;;;5.60;;
5939;SDS011;2995;-31.998;115.906;2023-08-07T14:58:29;6.23;;;4.30;;
5939;SDS011;2995;-31.998;115.906;2023-08-07T15:01:01;5.87;;;5.23;;
5939;SDS011;2995;-31.998;115.906;2023-08-07T15:03:32;8.70;;;5.70;;